Terminal Aerodrome Forecast
Issued by NWS

Home | Current Version | Previous Version | Text Only | Print | Product List | Glossary On
Versions: 1 2 3 4 5 6 7 8 9 10 11 12 13 14 15 16 17 18 19 20 21 22
882
FTUS43 KAPX 132034 AAA
TAFPLN
TAF AMD
KPLN 132034Z 1321/1418 30010KT P6SM SCT040
      TEMPO 1321/1322 BKN040
     FM132200 32003KT P6SM VCSH SCT025 OVC035
     FM140300 00000KT P6SM SCT035
     FM140800 00000KT P6SM SKC=

USA.gov is the U.S. government's official web portal to all federal, state and local government web resources and services.